Terminal Aerodrome Forecast
Issued by NWS

Home | Current Version | Previous Version | Text Only | Print | Product List | Glossary On
Versions: 1 2 3 4 5 6 7 8 9 10 11 12 13 14 15 16 17 18 19 20 21 22 23 24 25
000
FTUS45 KVEF 270524
TAFLAS
TAF
KLAS 270524Z 2706/2806 22007KT P6SM FEW120
     FM271600 VRB05KT P6SM SCT120
     FM272000 08007KT P6SM FEW120
     FM280200 23007KT P6SM FEW120=

USA.gov is the U.S. government's official web portal to all federal, state and local government web resources and services.